Time;durP1;ratioP1;P1;durP2;ratioP2;P2;SDS_P1;SDS_P2;PMS_P1;PMS_P2;Temp;Humidity;BMP_temperature;BMP_pressure;BME280_temperature;BME280_humidity;BME280_pressure;Samples;Min_cycle;Max_cycle;Signal;HPM_P1;HPM_P2
2023/10/20 00:00:06;;;;;;;17.85;13.27;;;;;;;;;;1043428;28;20432;-67
2023/10/20 00:00:37;;;;;;;19.63;13.55;;;;;;;;;;1043255;28;20124;-65
2023/10/20 00:01:28;;;;;;;19.30;12.80;;;;;;;;;;1042631;28;20128;-65
2023/10/20 00:01:58;;;;;;;17.02;12.48;;;;;;;;;;1043144;28;20111;-66
2023/10/20 00:02:29;;;;;;;17.15;11.90;;;;;;;;;;1042935;28;23809;-67
2023/10/20 00:02:59;;;;;;;14.85;11.50;;;;;;;;;;1043989;28;20044;-66
2023/10/20 00:03:30;;;;;;;19.42;13.57;;;;;;;;;;1045032;28;20048;-65
2023/10/20 00:04:03;;;;;;;17.92;12.73;;;;;;;;;;1043865;28;20059;-65
2023/10/20 00:04:34;;;;;;;18.80;12.80;;;;;;;;;;1041908;28;20048;-66
2023/10/20 00:05:05;;;;;;;19.48;13.00;;;;;;;;;;1044948;28;20133;-66
2023/10/20 00:05:35;;;;;;;19.23;13.05;;;;;;;;;;1044287;28;20060;-66
2023/10/20 00:06:06;;;;;;;19.92;12.88;;;;;;;;;;1045016;28;20055;-68
2023/10/20 00:06:39;;;;;;;16.42;12.00;;;;;;;;;;1043368;28;20048;-66
2023/10/20 00:07:09;;;;;;;18.83;12.80;;;;;;;;;;1041074;28;20083;-67
2023/10/20 00:07:40;;;;;;;18.48;12.93;;;;;;;;;;1045357;28;20060;-66
2023/10/20 00:08:10;;;;;;;15.80;12.35;;;;;;;;;;1044642;28;20051;-66
2023/10/20 00:08:42;;;;;;;19.35;13.52;;;;;;;;;;1043826;28;20412;-65
2023/10/20 00:09:14;;;;;;;18.35;13.40;;;;;;;;;;1044674;28;20037;-65
2023/10/20 00:09:44;;;;;;;19.63;13.32;;;;;;;;;;1045575;28;20794;-65
2023/10/20 00:10:15;;;;;;;17.90;12.23;;;;;;;;;;1043448;28;20401;-66
2023/10/20 00:10:46;;;;;;;20.35;13.55;;;;;;;;;;1044692;28;20040;-66
2023/10/20 00:11:17;;;;;;;18.65;13.50;;;;;;;;;;1044736;28;20122;-66
2023/10/20 00:11:48;;;;;;;18.85;12.82;;;;;;;;;;1043607;28;20067;-66
2023/10/20 00:12:19;;;;;;;20.27;13.43;;;;;;;;;;1044283;28;20052;-65
2023/10/20 00:12:50;;;;;;;17.95;13.55;;;;;;;;;;1042556;28;20535;-67
2023/10/20 00:13:21;;;;;;;17.73;13.05;;;;;;;;;;1045524;28;20122;-65
2023/10/20 00:13:52;;;;;;;17.55;12.63;;;;;;;;;;1043865;28;20127;-65
2023/10/20 00:14:23;;;;;;;18.23;12.80;;;;;;;;;;1042209;28;20537;-67
2023/10/20 00:14:53;;;;;;;17.23;12.63;;;;;;;;;;1044998;28;20098;-66
2023/10/20 00:15:25;;;;;;;18.88;12.88;;;;;;;;;;1042033;28;20461;-66
2023/10/20 00:15:56;;;;;;;17.58;12.70;;;;;;;;;;1045004;28;20064;-66
2023/10/20 00:16:28;;;;;;;21.05;13.82;;;;;;;;;;1045305;28;20382;-67
2023/10/20 00:16:59;;;;;;;18.98;13.43;;;;;;;;;;1044331;28;20059;-65
2023/10/20 00:19:01;;;;;;;17.95;12.32;;;;;;;;;;1044602;28;20393;-66
2023/10/20 00:19:31;;;;;;;18.02;11.57;;;;;;;;;;1043455;28;20056;-67
2023/10/20 00:20:02;;;;;;;19.67;13.05;;;;;;;;;;1045200;28;20053;-66
2023/10/20 00:20:32;;;;;;;16.00;11.45;;;;;;;;;;1044820;28;20056;-65
2023/10/20 00:21:04;;;;;;;15.57;11.85;;;;;;;;;;1045639;28;20428;-65
2023/10/20 00:21:35;;;;;;;16.60;11.88;;;;;;;;;;1043785;28;20052;-66
2023/10/20 00:22:06;;;;;;;17.55;12.52;;;;;;;;;;1044375;28;20042;-67
2023/10/20 00:22:36;;;;;;;15.82;10.95;;;;;;;;;;1044307;28;20092;-67
2023/10/20 00:23:07;;;;;;;18.20;11.98;;;;;;;;;;1044876;28;20060;-67
2023/10/20 00:23:38;;;;;;;16.08;11.60;;;;;;;;;;1044573;28;20122;-66
2023/10/20 00:24:08;;;;;;;19.05;12.80;;;;;;;;;;1043622;28;20052;-66
2023/10/20 00:24:39;;;;;;;16.83;12.38;;;;;;;;;;1039325;28;20106;-65
2023/10/20 00:25:11;;;;;;;18.90;11.80;;;;;;;;;;1040977;28;20500;-66
2023/10/20 00:25:42;;;;;;;16.90;12.05;;;;;;;;;;1043921;28;20052;-66
2023/10/20 00:26:13;;;;;;;16.05;11.77;;;;;;;;;;1045310;28;20469;-67
2023/10/20 00:26:43;;;;;;;14.90;11.23;;;;;;;;;;1043992;28;20063;-66
2023/10/20 00:27:14;;;;;;;18.38;12.73;;;;;;;;;;1044706;28;20152;-66
2023/10/20 00:27:45;;;;;;;16.27;11.77;;;;;;;;;;1045815;28;20080;-66
2023/10/20 00:28:15;;;;;;;16.10;11.65;;;;;;;;;;1045037;28;20597;-66
2023/10/20 00:28:46;;;;;;;16.52;11.95;;;;;;;;;;1042545;28;20432;-66
2023/10/20 00:29:16;;;;;;;19.42;12.13;;;;;;;;;;1045539;28;20102;-65
2023/10/20 00:29:47;;;;;;;17.35;12.13;;;;;;;;;;1045894;28;20052;-65
2023/10/20 00:30:18;;;;;;;16.00;12.10;;;;;;;;;;1043852;28;20095;-66
2023/10/20 00:30:48;;;;;;;19.75;12.55;;;;;;;;;;1044671;28;20076;-66
2023/10/20 00:31:19;;;;;;;16.35;11.68;;;;;;;;;;1046120;28;20068;-65
2023/10/20 00:31:50;;;;;;;15.20;11.52;;;;;;;;;;1043953;28;20033;-66
2023/10/20 00:32:20;;;;;;;16.13;11.70;;;;;;;;;;1044778;28;20055;-65
2023/10/20 00:32:51;;;;;;;15.65;11.93;;;;;;;;;;1046364;28;20901;-65
2023/10/20 00:33:21;;;;;;;16.98;11.23;;;;;;;;;;1045045;28;20105;-65
2023/10/20 00:33:52;;;;;;;18.77;12.98;;;;;;;;;;1045536;28;20669;-66
2023/10/20 00:34:22;;;;;;;18.10;12.50;;;;;;;;;;1043540;28;20057;-66
2023/10/20 00:34:53;;;;;;;16.60;11.57;;;;;;;;;;1046139;28;20055;-65
2023/10/20 00:35:24;;;;;;;17.05;11.93;;;;;;;;;;1045486;28;20413;-67
2023/10/20 00:35:54;;;;;;;17.42;11.98;;;;;;;;;;1044635;28;20122;-65
2023/10/20 00:36:27;;;;;;;15.85;11.90;;;;;;;;;;1042248;28;20076;-65
2023/10/20 00:36:58;;;;;;;15.82;11.30;;;;;;;;;;1042919;28;20127;-66
2023/10/20 00:37:29;;;;;;;18.98;12.15;;;;;;;;;;1045955;28;20094;-66
2023/10/20 00:38:01;;;;;;;18.50;12.52;;;;;;;;;;1043093;28;21721;-65
2023/10/20 00:38:31;;;;;;;17.42;11.43;;;;;;;;;;1044031;28;20114;-66
2023/10/20 00:39:02;;;;;;;20.58;12.77;;;;;;;;;;1045452;28;20109;-66
2023/10/20 00:39:34;;;;;;;14.90;11.40;;;;;;;;;;1044944;28;20052;-65
2023/10/20 00:40:10;;;;;;;17.65;11.98;;;;;;;;;;1044076;28;20598;-65
2023/10/20 00:40:49;;;;;;;17.30;11.10;;;;;;;;;;1046663;28;20064;-66
2023/10/20 00:41:20;;;;;;;16.65;12.05;;;;;;;;;;1042482;28;20572;-66
2023/10/20 00:41:50;;;;;;;19.10;12.82;;;;;;;;;;1046475;28;20052;-67
2023/10/20 00:42:21;;;;;;;17.98;12.32;;;;;;;;;;1042072;28;20064;-66
2023/10/20 00:42:51;;;;;;;19.15;12.38;;;;;;;;;;1046892;28;20086;-65
2023/10/20 00:43:33;;;;;;;16.67;11.68;;;;;;;;;;1044209;28;20119;-65
2023/10/20 00:44:04;;;;;;;18.35;12.30;;;;;;;;;;1044631;28;20069;-65
2023/10/20 00:44:34;;;;;;;16.70;11.55;;;;;;;;;;1044244;28;20117;-68
2023/10/20 00:45:08;;;;;;;18.73;11.40;;;;;;;;;;1046074;28;20193;-65
2023/10/20 00:45:40;;;;;;;15.23;11.40;;;;;;;;;;1044363;28;20044;-65
2023/10/20 00:46:10;;;;;;;18.13;11.85;;;;;;;;;;1045445;28;20049;-66
2023/10/20 00:46:45;;;;;;;16.58;11.95;;;;;;;;;;1044697;28;20045;-65
2023/10/20 00:47:17;;;;;;;20.45;12.05;;;;;;;;;;1045292;28;20079;-65
2023/10/20 00:47:48;;;;;;;17.52;12.00;;;;;;;;;;1044229;28;20052;-67
2023/10/20 00:48:19;;;;;;;14.15;10.88;;;;;;;;;;1044858;28;20124;-66
2023/10/20 00:48:49;;;;;;;15.25;11.52;;;;;;;;;;1045573;28;20071;-66
2023/10/20 00:49:20;;;;;;;17.10;11.98;;;;;;;;;;1043760;28;20051;-66
2023/10/20 00:49:51;;;;;;;19.40;12.65;;;;;;;;;;1044174;28;20057;-65
2023/10/20 00:50:23;;;;;;;16.50;11.95;;;;;;;;;;1044547;28;20094;-66
2023/10/20 00:50:53;;;;;;;16.67;12.15;;;;;;;;;;1042884;28;20064;-66
2023/10/20 00:51:27;;;;;;;18.05;12.25;;;;;;;;;;1044626;28;20047;-65
2023/10/20 00:51:59;;;;;;;17.17;12.40;;;;;;;;;;1045014;28;20044;-66
2023/10/20 00:52:30;;;;;;;19.90;12.98;;;;;;;;;;1044085;28;20052;-65
2023/10/20 00:53:02;;;;;;;18.15;12.50;;;;;;;;;;1045055;28;20056;-66
2023/10/20 00:53:34;;;;;;;17.65;11.68;;;;;;;;;;1045022;28;20055;-66
2023/10/20 00:54:07;;;;;;;19.90;11.93;;;;;;;;;;1044306;28;20137;-65
2023/10/20 00:54:37;;;;;;;19.27;12.07;;;;;;;;;;1043334;28;20049;-67
2023/10/20 00:55:08;;;;;;;17.92;12.55;;;;;;;;;;1045952;28;20059;-66
2023/10/20 00:55:40;;;;;;;19.08;13.32;;;;;;;;;;1046534;28;20056;-65
2023/10/20 00:56:10;;;;;;;15.18;11.40;;;;;;;;;;1047652;28;20076;-65
2023/10/20 00:56:41;;;;;;;18.23;11.57;;;;;;;;;;1049807;28;20048;-65
2023/10/20 00:57:16;;;;;;;18.08;12.05;;;;;;;;;;1045080;28;20524;-66
2023/10/20 00:57:46;;;;;;;18.88;11.50;;;;;;;;;;1044452;28;20052;-66
2023/10/20 00:58:17;;;;;;;17.48;12.35;;;;;;;;;;1044986;28;20054;-65
2023/10/20 00:58:48;;;;;;;18.02;11.88;;;;;;;;;;1044384;28;20143;-65
2023/10/20 00:59:19;;;;;;;17.17;12.00;;;;;;;;;;1044959;28;20049;-66
2023/10/20 00:59:49;;;;;;;18.92;12.65;;;;;;;;;;1045443;28;20048;-66
2023/10/20 01:00:20;;;;;;;18.83;12.45;;;;;;;;;;1044822;28;20500;-67
2023/10/20 01:00:51;;;;;;;16.92;12.02;;;;;;;;;;1044430;28;20044;-65
2023/10/20 01:01:21;;;;;;;17.60;12.02;;;;;;;;;;1043753;28;20051;-66
2023/10/20 01:01:52;;;;;;;17.98;12.05;;;;;;;;;;1044568;28;20079;-65
2023/10/20 01:02:24;;;;;;;19.08;12.27;;;;;;;;;;1044875;28;20449;-65
2023/10/20 01:02:55;;;;;;;17.50;13.02;;;;;;;;;;1043836;28;20484;-67
2023/10/20 01:03:27;;;;;;;18.70;12.20;;;;;;;;;;1044103;28;20037;-65
2023/10/20 01:03:57;;;;;;;19.75;12.80;;;;;;;;;;1045991;28;20086;-65
2023/10/20 01:04:28;;;;;;;16.58;12.15;;;;;;;;;;1044924;28;20047;-66
2023/10/20 01:04:59;;;;;;;22.13;12.10;;;;;;;;;;1045933;28;20369;-66
2023/10/20 01:05:29;;;;;;;16.17;11.48;;;;;;;;;;1044557;28;20052;-66
2023/10/20 01:06:03;;;;;;;17.63;11.98;;;;;;;;;;1045074;28;20053;-67
2023/10/20 01:06:36;;;;;;;18.13;11.93;;;;;;;;;;1045985;28;20053;-66
2023/10/20 01:07:06;;;;;;;22.27;12.57;;;;;;;;;;1045563;28;20058;-65
2023/10/20 01:07:37;;;;;;;18.70;12.90;;;;;;;;;;1042303;28;20424;-65
2023/10/20 01:08:08;;;;;;;21.50;12.82;;;;;;;;;;1045105;28;20433;-65
2023/10/20 01:08:39;;;;;;;21.17;13.88;;;;;;;;;;1044088;28;20479;-66
2023/10/20 01:09:10;;;;;;;23.60;13.65;;;;;;;;;;1045514;28;20416;-66
2023/10/20 01:09:42;;;;;;;22.25;14.23;;;;;;;;;;1044958;28;20052;-67
2023/10/20 01:10:13;;;;;;;24.65;13.93;;;;;;;;;;1042034;28;20542;-65
2023/10/20 01:10:44;;;;;;;17.55;12.93;;;;;;;;;;1046496;28;20105;-66
2023/10/20 01:11:14;;;;;;;19.40;12.63;;;;;;;;;;1044854;28;20052;-67
2023/10/20 01:11:45;;;;;;;21.20;13.70;;;;;;;;;;1045610;28;20135;-65
2023/10/20 01:12:15;;;;;;;20.02;12.15;;;;;;;;;;1044945;28;20044;-67
2023/10/20 01:12:46;;;;;;;18.92;13.02;;;;;;;;;;1043866;28;21846;-65
2023/10/20 01:13:16;;;;;;;21.42;13.60;;;;;;;;;;1044548;28;20059;-66
2023/10/20 01:13:47;;;;;;;21.40;13.35;;;;;;;;;;1053961;28;20129;-67
2023/10/20 01:14:18;;;;;;;20.95;13.63;;;;;;;;;;1052973;28;20055;-67
2023/10/20 01:14:48;;;;;;;21.73;14.00;;;;;;;;;;1050962;28;20048;-65
2023/10/20 01:15:19;;;;;;;24.95;13.98;;;;;;;;;;1050160;28;21045;-65
2023/10/20 01:15:50;;;;;;;19.23;13.63;;;;;;;;;;1044919;28;20140;-66
2023/10/20 01:16:20;;;;;;;22.48;14.20;;;;;;;;;;1045398;28;20098;-66
2023/10/20 01:16:51;;;;;;;22.40;14.55;;;;;;;;;;1044885;28;20547;-65
2023/10/20 01:17:21;;;;;;;20.77;13.82;;;;;;;;;;1043873;28;20048;-66
2023/10/20 01:17:52;;;;;;;20.83;13.88;;;;;;;;;;1044654;28;20079;-66
2023/10/20 01:18:23;;;;;;;23.23;15.18;;;;;;;;;;1044993;28;20049;-65
2023/10/20 01:18:53;;;;;;;19.90;13.55;;;;;;;;;;1044018;28;20484;-66
2023/10/20 01:19:24;;;;;;;21.48;14.05;;;;;;;;;;1043778;28;20064;-66
2023/10/20 01:19:55;;;;;;;24.08;14.48;;;;;;;;;;1042992;28;20053;-66
2023/10/20 01:20:26;;;;;;;24.75;14.50;;;;;;;;;;1044536;28;20048;-67
2023/10/20 01:20:57;;;;;;;22.00;14.63;;;;;;;;;;1044346;28;20047;-65
2023/10/20 01:21:27;;;;;;;22.90;14.15;;;;;;;;;;1043833;28;20045;-65
2023/10/20 01:21:59;;;;;;;23.90;14.52;;;;;;;;;;1045957;28;20053;-65
2023/10/20 01:22:30;;;;;;;21.33;13.85;;;;;;;;;;1045062;28;20514;-65
2023/10/20 01:23:01;;;;;;;21.92;14.25;;;;;;;;;;1044370;28;20060;-65
2023/10/20 01:23:31;;;;;;;23.85;14.57;;;;;;;;;;1044409;28;20052;-65
2023/10/20 01:24:04;;;;;;;22.63;14.05;;;;;;;;;;1052604;28;20087;-65
2023/10/20 01:24:35;;;;;;;21.75;13.98;;;;;;;;;;1051620;28;20052;-65
2023/10/20 01:25:06;;;;;;;24.65;13.60;;;;;;;;;;1054241;28;20051;-66
2023/10/20 01:25:37;;;;;;;19.20;12.98;;;;;;;;;;1053512;28;20647;-67
2023/10/20 01:26:07;;;;;;;21.33;14.15;;;;;;;;;;1046013;28;20488;-65
2023/10/20 01:26:38;;;;;;;20.77;12.90;;;;;;;;;;1045992;28;20754;-65
2023/10/20 01:27:09;;;;;;;17.92;12.43;;;;;;;;;;1043884;28;20053;-66
2023/10/20 01:27:39;;;;;;;18.08;12.88;;;;;;;;;;1043852;28;20063;-65
2023/10/20 01:28:10;;;;;;;18.85;12.70;;;;;;;;;;1044780;28;20084;-65
2023/10/20 01:28:40;;;;;;;19.80;12.80;;;;;;;;;;1044515;28;20058;-65
2023/10/20 01:29:12;;;;;;;17.83;12.45;;;;;;;;;;1044680;28;20056;-65
2023/10/20 01:29:42;;;;;;;21.35;14.32;;;;;;;;;;1044556;28;20052;-65
2023/10/20 01:30:13;;;;;;;19.90;13.00;;;;;;;;;;1042317;28;20136;-66
2023/10/20 01:30:43;;;;;;;21.58;13.80;;;;;;;;;;1044249;28;20056;-65
2023/10/20 01:31:14;;;;;;;20.92;13.18;;;;;;;;;;1045654;28;20056;-66
2023/10/20 01:31:44;;;;;;;21.30;13.57;;;;;;;;;;1045382;28;20067;-65
2023/10/20 01:32:15;;;;;;;23.98;15.57;;;;;;;;;;1044181;28;20762;-65
2023/10/20 01:32:45;;;;;;;21.90;13.63;;;;;;;;;;1044663;28;20049;-66
2023/10/20 01:33:16;;;;;;;22.00;14.23;;;;;;;;;;1045977;28;20458;-66
2023/10/20 01:33:47;;;;;;;23.67;15.50;;;;;;;;;;1044757;28;20542;-65
2023/10/20 01:34:17;;;;;;;22.17;14.57;;;;;;;;;;1042562;28;20071;-65
2023/10/20 01:34:48;;;;;;;22.73;13.77;;;;;;;;;;1043735;28;20577;-66
2023/10/20 01:35:18;;;;;;;20.50;13.73;;;;;;;;;;1045449;28;20516;-66
2023/10/20 01:35:49;;;;;;;23.48;14.52;;;;;;;;;;1053496;28;20142;-65
2023/10/20 01:36:19;;;;;;;22.17;13.85;;;;;;;;;;1052032;28;20044;-65
2023/10/20 01:36:50;;;;;;;20.77;13.50;;;;;;;;;;1053796;28;20154;-67
2023/10/20 01:37:21;;;;;;;20.60;13.13;;;;;;;;;;1053213;28;20136;-66
2023/10/20 01:37:52;;;;;;;20.75;13.10;;;;;;;;;;1043909;28;20140;-65
2023/10/20 01:38:23;;;;;;;21.40;14.20;;;;;;;;;;1042797;28;20044;-65
2023/10/20 01:38:54;;;;;;;21.40;13.73;;;;;;;;;;1046220;28;20705;-65
2023/10/20 01:39:25;;;;;;;19.90;13.82;;;;;;;;;;1044360;28;20114;-65
2023/10/20 01:39:55;;;;;;;20.17;14.43;;;;;;;;;;1042974;28;20055;-66
2023/10/20 01:40:27;;;;;;;21.75;13.43;;;;;;;;;;1044179;28;20056;-65
2023/10/20 01:40:57;;;;;;;20.55;13.27;;;;;;;;;;1044459;28;20076;-67
2023/10/20 01:41:28;;;;;;;22.33;14.68;;;;;;;;;;1045338;28;20055;-66
2023/10/20 01:41:58;;;;;;;18.77;13.18;;;;;;;;;;1044612;28;20105;-65
2023/10/20 01:42:29;;;;;;;19.08;13.32;;;;;;;;;;1042874;28;20052;-66
2023/10/20 01:42:59;;;;;;;21.13;13.77;;;;;;;;;;1046023;28;20057;-67
2023/10/20 01:43:30;;;;;;;21.80;13.43;;;;;;;;;;1045016;28;20068;-66
2023/10/20 01:44:00;;;;;;;17.05;12.27;;;;;;;;;;1045700;28;20052;-66
2023/10/20 01:44:31;;;;;;;21.08;13.48;;;;;;;;;;1043121;28;20098;-67
2023/10/20 01:45:02;;;;;;;22.50;14.68;;;;;;;;;;1054798;28;20055;-65
2023/10/20 01:45:33;;;;;;;19.95;13.45;;;;;;;;;;1052847;28;20234;-66
2023/10/20 01:46:04;;;;;;;22.20;13.88;;;;;;;;;;1053248;28;20082;-66
2023/10/20 01:46:35;;;;;;;23.10;15.05;;;;;;;;;;1050598;28;20048;-66
2023/10/20 01:47:06;;;;;;;21.73;14.32;;;;;;;;;;1045687;28;20054;-65
2023/10/20 01:47:37;;;;;;;21.20;14.20;;;;;;;;;;1043203;28;20083;-66
2023/10/20 01:48:08;;;;;;;19.95;14.52;;;;;;;;;;1044199;28;20135;-66
2023/10/20 01:48:38;;;;;;;19.23;13.25;;;;;;;;;;1043131;28;20045;-67
2023/10/20 01:49:09;;;;;;;19.70;13.60;;;;;;;;;;1045917;28;20057;-65
2023/10/20 01:49:40;;;;;;;20.83;13.68;;;;;;;;;;1044310;28;20185;-66
2023/10/20 01:50:12;;;;;;;18.92;13.60;;;;;;;;;;1044619;28;20059;-67
2023/10/20 01:50:43;;;;;;;19.98;13.43;;;;;;;;;;1045922;28;20052;-67
2023/10/20 01:51:14;;;;;;;17.17;13.35;;;;;;;;;;1044115;28;20057;-65
2023/10/20 01:51:44;;;;;;;19.20;13.48;;;;;;;;;;1044323;28;20051;-65
2023/10/20 01:52:15;;;;;;;20.88;12.68;;;;;;;;;;1044262;28;20523;-66
2023/10/20 01:52:46;;;;;;;20.08;12.50;;;;;;;;;;1046178;28;20048;-65
2023/10/20 01:53:16;;;;;;;19.02;13.05;;;;;;;;;;1042176;28;20095;-65
2023/10/20 01:53:47;;;;;;;18.05;12.98;;;;;;;;;;1045666;28;20198;-65
2023/10/20 01:54:18;;;;;;;18.30;13.60;;;;;;;;;;1042727;28;20060;-65
2023/10/20 01:54:48;;;;;;;19.38;12.27;;;;;;;;;;1045320;28;20045;-67
2023/10/20 01:55:19;;;;;;;18.90;12.50;;;;;;;;;;1043404;28;20082;-66
2023/10/20 01:55:49;;;;;;;18.10;13.05;;;;;;;;;;1044613;28;20560;-67
2023/10/20 01:56:20;;;;;;;18.55;12.63;;;;;;;;;;1045886;28;20060;-65
2023/10/20 01:56:50;;;;;;;18.67;11.65;;;;;;;;;;1045087;28;20155;-66
2023/10/20 01:57:21;;;;;;;18.88;12.20;;;;;;;;;;1044279;28;20044;-66
2023/10/20 01:57:51;;;;;;;18.30;12.77;;;;;;;;;;1044903;28;20090;-65
2023/10/20 01:58:22;;;;;;;18.30;12.50;;;;;;;;;;1054016;28;20437;-67
2023/10/20 01:58:52;;;;;;;20.20;12.40;;;;;;;;;;1052481;28;20446;-65
2023/10/20 01:59:23;;;;;;;20.90;12.75;;;;;;;;;;1051236;28;20039;-66
2023/10/20 01:59:54;;;;;;;20.20;13.35;;;;;;;;;;1052818;28;20055;-66
2023/10/20 02:00:25;;;;;;;18.60;12.80;;;;;;;;;;1044038;28;20409;-65
2023/10/20 02:00:55;;;;;;;18.98;13.18;;;;;;;;;;1045455;28;20481;-66
2023/10/20 02:01:26;;;;;;;19.42;13.55;;;;;;;;;;1043355;28;20029;-65
2023/10/20 02:01:57;;;;;;;18.63;12.77;;;;;;;;;;1046016;28;20055;-67
2023/10/20 02:02:28;;;;;;;17.58;12.30;;;;;;;;;;1043596;28;20086;-66
2023/10/20 02:02:58;;;;;;;17.38;12.50;;;;;;;;;;1046200;28;20048;-66
2023/10/20 02:03:30;;;;;;;18.02;12.25;;;;;;;;;;1045691;28;20086;-66
2023/10/20 02:04:00;;;;;;;16.10;12.10;;;;;;;;;;1046397;28;20060;-66
2023/10/20 02:04:31;;;;;;;17.20;12.20;;;;;;;;;;1044425;28;20053;-65
2023/10/20 02:05:03;;;;;;;17.42;12.35;;;;;;;;;;1043394;28;20106;-66
2023/10/20 02:05:34;;;;;;;17.42;12.57;;;;;;;;;;1052690;28;20463;-66
2023/10/20 02:06:05;;;;;;;15.68;11.70;;;;;;;;;;1053625;28;20730;-66
2023/10/20 02:06:35;;;;;;;14.98;11.45;;;;;;;;;;1052650;28;20113;-67
2023/10/20 02:07:06;;;;;;;16.45;11.55;;;;;;;;;;1050728;28;20054;-67
2023/10/20 02:07:36;;;;;;;17.25;12.25;;;;;;;;;;1043716;28;20105;-65
2023/10/20 02:08:10;;;;;;;16.13;11.38;;;;;;;;;;1053675;28;20407;-66
2023/10/20 02:08:41;;;;;;;16.88;12.23;;;;;;;;;;1048473;28;20154;-65
2023/10/20 02:09:11;;;;;;;16.27;12.00;;;;;;;;;;1048428;27;20073;-65
2023/10/20 02:09:42;;;;;;;16.55;11.45;;;;;;;;;;1051733;28;20052;-68
2023/10/20 02:10:12;;;;;;;20.35;12.82;;;;;;;;;;1042265;28;20048;-64
2023/10/20 02:10:44;;;;;;;17.05;12.10;;;;;;;;;;1040866;28;20033;-68
2023/10/20 02:11:15;;;;;;;18.60;12.13;;;;;;;;;;1041789;28;20053;-66
2023/10/20 02:11:46;;;;;;;18.48;12.57;;;;;;;;;;1039722;28;20044;-66
2023/10/20 02:12:16;;;;;;;16.38;12.27;;;;;;;;;;1040298;28;20102;-64
2023/10/20 02:12:47;;;;;;;16.83;11.35;;;;;;;;;;1040553;28;21900;-64
2023/10/20 02:13:17;;;;;;;15.63;11.27;;;;;;;;;;1042942;28;20061;-64
2023/10/20 02:13:48;;;;;;;15.82;11.05;;;;;;;;;;1045588;28;20068;-66
2023/10/20 02:14:18;;;;;;;16.52;12.10;;;;;;;;;;1043394;28;20052;-66
2023/10/20 02:14:49;;;;;;;15.55;11.57;;;;;;;;;;1043047;28;20052;-66
2023/10/20 02:15:19;;;;;;;17.50;12.40;;;;;;;;;;1045143;28;20135;-64
2023/10/20 02:15:50;;;;;;;16.73;12.45;;;;;;;;;;1045636;28;20516;-65
2023/10/20 02:16:21;;;;;;;16.90;12.32;;;;;;;;;;1044524;28;20055;-64
2023/10/20 02:16:52;;;;;;;15.50;11.48;;;;;;;;;;1045506;28;20060;-64
2023/10/20 02:17:22;;;;;;;15.73;11.32;;;;;;;;;;1044972;28;20773;-64
2023/10/20 02:17:53;;;;;;;17.52;11.63;;;;;;;;;;1044715;28;20041;-68
2023/10/20 02:18:24;;;;;;;15.93;10.98;;;;;;;;;;1045244;28;20049;-64
2023/10/20 02:18:54;;;;;;;15.57;11.77;;;;;;;;;;1045437;28;20125;-65
2023/10/20 02:19:25;;;;;;;17.45;12.00;;;;;;;;;;1043819;28;20048;-64
2023/10/20 02:19:57;;;;;;;16.20;11.93;;;;;;;;;;1042737;28;20095;-64
2023/10/20 02:20:28;;;;;;;17.23;12.30;;;;;;;;;;1043084;28;20067;-66
2023/10/20 02:21:03;;;;;;;17.60;11.00;;;;;;;;;;1043979;28;20053;-66
2023/10/20 02:21:33;;;;;;;18.13;12.02;;;;;;;;;;1043660;28;20076;-66
2023/10/20 02:22:04;;;;;;;17.65;11.75;;;;;;;;;;1045513;28;20781;-66
2023/10/20 02:22:35;;;;;;;16.33;11.88;;;;;;;;;;1042596;28;20107;-67
2023/10/20 02:23:07;;;;;;;15.60;11.27;;;;;;;;;;1045240;28;20607;-64
2023/10/20 02:23:40;;;;;;;15.73;11.20;;;;;;;;;;1043751;28;20063;-64
2023/10/20 02:24:11;;;;;;;16.42;10.88;;;;;;;;;;1045627;28;20110;-64
2023/10/20 02:24:44;;;;;;;15.00;11.18;;;;;;;;;;1042474;28;20048;-63
2023/10/20 02:25:16;;;;;;;15.65;11.23;;;;;;;;;;1044015;28;20145;-64
2023/10/20 02:25:59;;;;;;;14.75;10.70;;;;;;;;;;1044672;28;20056;-63
2023/10/20 02:26:30;;;;;;;15.27;11.40;;;;;;;;;;1043849;28;21663;-63
2023/10/20 02:27:00;;;;;;;20.05;11.38;;;;;;;;;;1045841;28;21517;-66
2023/10/20 02:27:32;;;;;;;17.55;11.98;;;;;;;;;;1043210;28;20060;-65
2023/10/20 02:28:03;;;;;;;16.95;12.40;;;;;;;;;;1045991;28;20462;-64
2023/10/20 02:28:34;;;;;;;16.08;11.52;;;;;;;;;;1044497;28;21120;-66
2023/10/20 02:29:04;;;;;;;16.48;10.70;;;;;;;;;;1045515;28;20050;-64
2023/10/20 02:29:35;;;;;;;15.60;11.30;;;;;;;;;;1044884;28;20072;-64
2023/10/20 02:30:06;;;;;;;15.25;11.10;;;;;;;;;;1042020;28;20135;-66
2023/10/20 02:30:37;;;;;;;17.67;11.73;;;;;;;;;;1045322;28;20106;-63
2023/10/20 02:31:18;;;;;;;15.10;11.45;;;;;;;;;;1045577;28;20098;-64
2023/10/20 02:31:49;;;;;;;14.73;10.77;;;;;;;;;;1044539;28;20052;-63
2023/10/20 02:32:19;;;;;;;17.15;12.30;;;;;;;;;;1042304;28;20148;-65
2023/10/20 02:32:50;;;;;;;15.73;11.65;;;;;;;;;;1044409;28;20048;-63
2023/10/20 02:33:20;;;;;;;14.90;10.95;;;;;;;;;;1043851;28;20060;-65
2023/10/20 02:33:51;;;;;;;17.48;11.40;;;;;;;;;;1044712;28;20508;-63
2023/10/20 02:34:22;;;;;;;15.77;11.32;;;;;;;;;;1044905;28;20056;-64
2023/10/20 02:34:53;;;;;;;14.77;10.68;;;;;;;;;;1044567;28;20059;-68
2023/10/20 02:35:24;;;;;;;17.67;11.63;;;;;;;;;;1045044;28;20052;-67
2023/10/20 02:35:54;;;;;;;14.85;11.05;;;;;;;;;;1045265;28;20143;-66
2023/10/20 02:36:25;;;;;;;16.48;11.65;;;;;;;;;;1045034;28;20044;-65
2023/10/20 02:36:55;;;;;;;14.45;10.95;;;;;;;;;;1045791;28;20048;-64
2023/10/20 02:37:26;;;;;;;15.90;11.35;;;;;;;;;;1043738;28;20048;-65
2023/10/20 02:37:56;;;;;;;15.68;10.98;;;;;;;;;;1045199;28;20071;-65
2023/10/20 02:38:28;;;;;;;14.50;10.70;;;;;;;;;;1043768;28;20049;-65
2023/10/20 02:38:59;;;;;;;15.90;10.73;;;;;;;;;;1044385;28;20045;-65
2023/10/20 02:39:29;;;;;;;18.50;12.20;;;;;;;;;;1043979;28;20056;-67
2023/10/20 02:40:04;;;;;;;17.40;11.88;;;;;;;;;;1045680;28;20717;-66
2023/10/20 02:40:34;;;;;;;16.27;11.15;;;;;;;;;;1044048;28;20760;-64
2023/10/20 02:41:05;;;;;;;15.85;11.05;;;;;;;;;;1044774;28;21141;-64
2023/10/20 02:41:35;;;;;;;16.10;11.38;;;;;;;;;;1045809;28;20048;-63
2023/10/20 02:42:06;;;;;;;16.23;11.35;;;;;;;;;;1043174;28;20053;-64
2023/10/20 02:42:37;;;;;;;16.00;11.32;;;;;;;;;;1045113;28;20078;-63
2023/10/20 02:43:07;;;;;;;15.00;10.52;;;;;;;;;;1045310;28;20066;-64
2023/10/20 02:43:38;;;;;;;15.32;10.80;;;;;;;;;;1046168;28;20064;-64
2023/10/20 02:44:08;;;;;;;15.75;11.00;;;;;;;;;;1045548;28;20048;-64
2023/10/20 02:44:39;;;;;;;14.25;10.70;;;;;;;;;;1043403;28;20072;-66
2023/10/20 02:45:10;;;;;;;17.88;11.65;;;;;;;;;;1044528;28;20063;-63
2023/10/20 02:45:52;;;;;;;17.23;11.10;;;;;;;;;;1041389;28;20459;-64
2023/10/20 02:46:23;;;;;;;16.13;10.77;;;;;;;;;;1041112;28;20083;-66
2023/10/20 02:46:54;;;;;;;15.70;11.55;;;;;;;;;;1044402;28;20477;-64
2023/10/20 02:47:25;;;;;;;16.60;10.98;;;;;;;;;;1045761;28;20118;-64
2023/10/20 02:47:55;;;;;;;18.17;11.50;;;;;;;;;;1045706;28;20074;-64
2023/10/20 02:48:26;;;;;;;14.90;10.23;;;;;;;;;;1043585;28;20048;-65
2023/10/20 02:48:56;;;;;;;18.60;11.73;;;;;;;;;;1045958;28;20041;-64
2023/10/20 02:49:27;;;;;;;16.75;11.80;;;;;;;;;;1043689;28;20715;-63
2023/10/20 02:49:57;;;;;;;16.13;11.10;;;;;;;;;;1045973;28;20048;-66
2023/10/20 02:50:28;;;;;;;19.00;12.13;;;;;;;;;;1042604;28;20079;-64
2023/10/20 02:51:11;;;;;;;18.08;12.70;;;;;;;;;;1044916;28;20052;-64
2023/10/20 02:51:41;;;;;;;16.08;11.10;;;;;;;;;;1037788;28;20061;-64
2023/10/20 02:52:13;;;;;;;15.65;11.48;;;;;;;;;;1041341;28;20059;-65
2023/10/20 02:52:44;;;;;;;14.88;10.70;;;;;;;;;;1045173;28;20048;-64
2023/10/20 02:53:15;;;;;;;13.95;10.63;;;;;;;;;;1042978;28;20091;-64
2023/10/20 02:53:47;;;;;;;15.50;11.18;;;;;;;;;;1045316;28;20060;-64
2023/10/20 02:54:17;;;;;;;16.23;11.95;;;;;;;;;;1040841;28;20055;-64
2023/10/20 02:54:53;;;;;;;18.23;12.25;;;;;;;;;;1042638;28;20047;-65
2023/10/20 02:55:25;;;;;;;16.40;11.52;;;;;;;;;;1044209;28;20140;-63
2023/10/20 02:55:56;;;;;;;16.27;11.73;;;;;;;;;;1044692;28;20098;-63
2023/10/20 02:56:26;;;;;;;15.15;10.77;;;;;;;;;;1045060;28;20110;-64
2023/10/20 02:56:57;;;;;;;15.50;11.30;;;;;;;;;;1044523;28;20446;-65
2023/10/20 02:57:27;;;;;;;17.38;11.80;;;;;;;;;;1044805;28;20500;-64
2023/10/20 02:57:59;;;;;;;18.38;12.43;;;;;;;;;;1044509;28;20094;-63
2023/10/20 02:58:29;;;;;;;16.92;10.95;;;;;;;;;;1044423;28;20859;-65
2023/10/20 02:59:00;;;;;;;16.40;12.20;;;;;;;;;;1044313;28;20546;-64
2023/10/20 02:59:31;;;;;;;15.65;11.20;;;;;;;;;;1044860;28;20059;-63
2023/10/20 03:00:11;;;;;;;17.92;11.27;;;;;;;;;;1043277;28;20045;-64
2023/10/20 03:00:43;;;;;;;16.00;11.15;;;;;;;;;;1042331;28;20064;-65
2023/10/20 03:01:17;;;;;;;14.57;10.93;;;;;;;;;;1044857;28;20053;-64
2023/10/20 03:01:47;;;;;;;14.93;10.55;;;;;;;;;;1044479;28;20435;-65
2023/10/20 03:02:20;;;;;;;15.32;10.88;;;;;;;;;;1042087;28;20619;-65
2023/10/20 03:02:53;;;;;;;16.27;11.20;;;;;;;;;;1044813;28;20467;-65